Somerville, MA (02145)

6:48 PM EST on November 25, 2014 (GMT -0500)
Medford | Change Station
CLOSE
Current Station
Personal Weather Station
Location: Medford, MA
Elevation: 39 ft
Nearby Weather Stations
Active Advisory: Winter Weather Advisory

Elev 39 ft 42.40 °N, 71.11 °W | Updated 5 seconds ago

Mostly Cloudy
Mostly Cloudy
52.8 °F
Feels Like 52.8 °F
N
1.0
Wind Variable Wind from West
Gusts 2.0 mph

Today
High -- | Low -- °F
--% Chance of Precip.
Yesterday
High -- | Low -- °F
Precip. -- in
6:47 AM 4:15 PM
Waxing Crescent, 14% visible
Pressure 29.97 in
Visibility 10.0 miles
Clouds Few 13000 ft
Mostly Cloudy 20000 ft
Dew Point 30 °F
Humidity 41%
Rainfall 0.00 in
Snow Depth Not available.
UV 0 out of 12
Pollen .10 out of 12
Air Quality Not available.
Flu Activity Not available.
METAR KBOS 252254Z COR 27010G21KT 10SM FEW130 BKN200 13/M03 A2997 RMK AO2 SLP147 T01331033

More Conditions Fewer Conditions

Pressure 29.97 in
Visibility 10.0 miles
Clouds Few 13000 ft
Mostly Cloudy 20000 ft
Dew Point 30 °F
Humidity 41%
Rainfall 0.00 in
Snow Depth Not available.
UV 0 out of 12
Pollen .10 out of 12
Air Quality Not available.
Flu Activity Not available.
METAR KBOS 252254Z COR 27010G21KT 10SM FEW130 BKN200 13/M03 A2997 RMK AO2 SLP147 T01331033

More Conditions Fewer Conditions

10-Day Weather Forecast

Almanac

Astronomy

Nov. 25, 2014 Rise Set
Actual Time
Civil Twilight
Nautical Twilight
Astronomical Twilight
Moon
Length of Visible Light
Length of Day
Tomorrow will be .
, % of the Moon is Illuminated

Today's Extremes

State Highs State Lows

Community

WunderPhotos

Upload Photos

1,773,624 photos uploaded!

WunderBlogs® & News

Nearby

Air Quality

  Air Quality AQ Index Pollutant
Not available.

Snow Depth

Station Depth Elevation

Earthquake Activity

City Distance Mag. Time & Date
Minimum magnitude displayed is 2.5.

Coastal Water Temperatures

Place Temperature

Nearby Weather Stations